sensor_id;sensor_type;location;lat;lon;timestamp;pressure;altitude;pressure_sealevel;temperature;humidity
61528;BME280;47395;42.032;-8.634;2023-05-20T00:01:10;101201.69;;;17.07;48.03
61528;BME280;47395;42.032;-8.634;2023-05-20T00:03:11;101198.28;;;17.05;48.25
61528;BME280;47395;42.032;-8.634;2023-05-20T00:05:12;101208.09;;;17.04;48.46
61528;BME280;47395;42.032;-8.634;2023-05-20T00:07:12;101201.09;;;16.89;48.73
61528;BME280;47395;42.032;-8.634;2023-05-20T00:09:13;101211.13;;;16.85;48.20
61528;BME280;47395;42.032;-8.634;2023-05-20T00:11:14;101201.28;;;16.73;48.56
61528;BME280;47395;42.032;-8.634;2023-05-20T00:13:15;101204.19;;;16.82;47.37
61528;BME280;47395;42.032;-8.634;2023-05-20T00:15:15;101184.16;;;16.64;47.81
61528;BME280;47395;42.032;-8.634;2023-05-20T00:17:16;101189.28;;;16.80;48.51
61528;BME280;47395;42.032;-8.634;2023-05-20T00:19:17;101199.94;;;16.80;48.17
61528;BME280;47395;42.032;-8.634;2023-05-20T00:21:18;101201.28;;;16.73;47.74
61528;BME280;47395;42.032;-8.634;2023-05-20T00:23:19;101201.72;;;16.66;48.34
61528;BME280;47395;42.032;-8.634;2023-05-20T00:25:19;101217.69;;;16.79;49.01
61528;BME280;47395;42.032;-8.634;2023-05-20T00:27:20;101238.78;;;16.82;47.95
61528;BME280;47395;42.032;-8.634;2023-05-20T00:29:21;101222.28;;;16.77;49.27
61528;BME280;47395;42.032;-8.634;2023-05-20T00:31:22;101231.00;;;16.92;48.29
61528;BME280;47395;42.032;-8.634;2023-05-20T00:33:23;101230.75;;;16.69;47.98
61528;BME280;47395;42.032;-8.634;2023-05-20T00:35:24;101255.41;;;16.58;47.89
61528;BME280;47395;42.032;-8.634;2023-05-20T00:37:25;101235.34;;;16.67;48.71
61528;BME280;47395;42.032;-8.634;2023-05-20T00:39:26;101236.88;;;16.57;48.96
61528;BME280;47395;42.032;-8.634;2023-05-20T00:41:27;101246.19;;;16.64;47.80
61528;BME280;47395;42.032;-8.634;2023-05-20T00:43:27;101240.84;;;16.51;48.74
61528;BME280;47395;42.032;-8.634;2023-05-20T00:45:30;101230.38;;;16.48;48.06
61528;BME280;47395;42.032;-8.634;2023-05-20T00:47:34;101236.66;;;16.47;47.83
61528;BME280;47395;42.032;-8.634;2023-05-20T00:49:38;101225.06;;;16.21;48.09
61528;BME280;47395;42.032;-8.634;2023-05-20T00:51:39;101226.19;;;16.31;48.92
61528;BME280;47395;42.032;-8.634;2023-05-20T00:53:40;101215.59;;;16.44;48.32
61528;BME280;47395;42.032;-8.634;2023-05-20T00:55:41;101217.44;;;16.56;48.72
61528;BME280;47395;42.032;-8.634;2023-05-20T00:57:42;101204.66;;;16.49;48.95
61528;BME280;47395;42.032;-8.634;2023-05-20T00:59:43;101189.88;;;16.57;48.58
61528;BME280;47395;42.032;-8.634;2023-05-20T01:01:44;101210.63;;;16.52;48.27
61528;BME280;47395;42.032;-8.634;2023-05-20T01:03:45;101190.41;;;16.63;48.00
61528;BME280;47395;42.032;-8.634;2023-05-20T01:05:46;101194.13;;;16.60;48.61
61528;BME280;47395;42.032;-8.634;2023-05-20T01:07:47;101193.06;;;16.63;49.38
61528;BME280;47395;42.032;-8.634;2023-05-20T01:09:48;101205.53;;;16.62;49.29
61528;BME280;47395;42.032;-8.634;2023-05-20T01:11:57;101186.59;;;16.26;49.23
61528;BME280;47395;42.032;-8.634;2023-05-20T01:14:02;101189.97;;;16.15;49.46
61528;BME280;47395;42.032;-8.634;2023-05-20T01:16:07;101189.22;;;16.13;49.91
61528;BME280;47395;42.032;-8.634;2023-05-20T01:18:10;101149.84;;;15.91;49.87
61528;BME280;47395;42.032;-8.634;2023-05-20T01:20:18;101182.13;;;15.85;50.22
61528;BME280;47395;42.032;-8.634;2023-05-20T01:22:27;101138.66;;;15.86;50.33
61528;BME280;47395;42.032;-8.634;2023-05-20T01:24:28;101172.94;;;15.76;50.32
61528;BME280;47395;42.032;-8.634;2023-05-20T01:26:29;101154.66;;;15.71;50.99
61528;BME280;47395;42.032;-8.634;2023-05-20T01:40:29;101146.19;;;15.79;51.04
61528;BME280;47395;42.032;-8.634;2023-05-20T01:42:31;101142.84;;;15.90;50.66
61528;BME280;47395;42.032;-8.634;2023-05-20T01:44:33;101135.06;;;15.87;51.17
61528;BME280;47395;42.032;-8.634;2023-05-20T01:46:34;101126.72;;;15.78;50.69
61528;BME280;47395;42.032;-8.634;2023-05-20T01:48:36;101135.69;;;15.90;51.16
61528;BME280;47395;42.032;-8.634;2023-05-20T01:50:38;101146.06;;;15.95;50.65
61528;BME280;47395;42.032;-8.634;2023-05-20T01:52:39;101143.31;;;15.97;50.65
61528;BME280;47395;42.032;-8.634;2023-05-20T01:54:40;101141.56;;;16.10;50.65
61528;BME280;47395;42.032;-8.634;2023-05-20T01:56:40;101151.94;;;16.00;50.32
61528;BME280;47395;42.032;-8.634;2023-05-20T01:58:41;101142.75;;;15.91;49.75
61528;BME280;47395;42.032;-8.634;2023-05-20T02:00:42;101137.34;;;15.78;50.00
61528;BME280;47395;42.032;-8.634;2023-05-20T02:02:43;101117.47;;;15.57;50.83
61528;BME280;47395;42.032;-8.634;2023-05-20T02:04:48;101127.63;;;15.50;50.99
61528;BME280;47395;42.032;-8.634;2023-05-20T02:06:50;101104.19;;;15.57;50.66
61528;BME280;47395;42.032;-8.634;2023-05-20T02:08:51;101102.22;;;15.46;50.97
61528;BME280;47395;42.032;-8.634;2023-05-20T02:10:52;101130.88;;;15.40;51.08
61528;BME280;47395;42.032;-8.634;2023-05-20T02:12:53;101122.81;;;15.42;50.74
61528;BME280;47395;42.032;-8.634;2023-05-20T02:14:54;101128.69;;;15.47;51.19
61528;BME280;47395;42.032;-8.634;2023-05-20T02:16:55;101142.91;;;15.46;51.03
61528;BME280;47395;42.032;-8.634;2023-05-20T02:18:56;101132.31;;;15.46;50.91
61528;BME280;47395;42.032;-8.634;2023-05-20T02:21:04;101131.38;;;15.33;50.49
61528;BME280;47395;42.032;-8.634;2023-05-20T02:23:05;101123.22;;;15.36;51.46
61528;BME280;47395;42.032;-8.634;2023-05-20T02:25:06;101116.84;;;15.53;50.50
61528;BME280;47395;42.032;-8.634;2023-05-20T02:27:07;101129.06;;;15.56;51.32
61528;BME280;47395;42.032;-8.634;2023-05-20T02:29:08;101117.94;;;15.63;50.56
61528;BME280;47395;42.032;-8.634;2023-05-20T02:31:09;101127.19;;;15.58;50.05
61528;BME280;47395;42.032;-8.634;2023-05-20T02:33:10;101100.16;;;15.51;49.73
61528;BME280;47395;42.032;-8.634;2023-05-20T02:35:11;101104.31;;;15.40;49.53
61528;BME280;47395;42.032;-8.634;2023-05-20T02:37:12;101103.09;;;15.46;49.31
61528;BME280;47395;42.032;-8.634;2023-05-20T02:39:13;101103.84;;;15.48;49.12
61528;BME280;47395;42.032;-8.634;2023-05-20T02:41:14;101096.28;;;15.42;49.24
61528;BME280;47395;42.032;-8.634;2023-05-20T02:43:16;101088.28;;;15.57;49.23
61528;BME280;47395;42.032;-8.634;2023-05-20T02:45:17;101095.69;;;15.51;49.15
61528;BME280;47395;42.032;-8.634;2023-05-20T02:47:19;101096.22;;;15.57;49.13
61528;BME280;47395;42.032;-8.634;2023-05-20T02:49:21;101087.34;;;15.58;50.14
61528;BME280;47395;42.032;-8.634;2023-05-20T02:51:22;101081.72;;;15.62;50.33
61528;BME280;47395;42.032;-8.634;2023-05-20T02:53:23;101078.56;;;15.70;49.82
61528;BME280;47395;42.032;-8.634;2023-05-20T02:55:25;101078.91;;;15.51;49.33
61528;BME280;47395;42.032;-8.634;2023-05-20T02:57:28;101075.34;;;15.65;49.45
61528;BME280;47395;42.032;-8.634;2023-05-20T02:59:30;101095.63;;;15.66;49.98
61528;BME280;47395;42.032;-8.634;2023-05-20T03:01:31;101081.81;;;15.61;50.68
61528;BME280;47395;42.032;-8.634;2023-05-20T03:03:35;101099.06;;;15.68;49.48
61528;BME280;47395;42.032;-8.634;2023-05-20T03:05:38;101086.66;;;15.69;49.23
61528;BME280;47395;42.032;-8.634;2023-05-20T03:07:39;101076.34;;;15.77;49.36
61528;BME280;47395;42.032;-8.634;2023-05-20T03:09:40;101085.47;;;15.73;49.33
61528;BME280;47395;42.032;-8.634;2023-05-20T03:11:42;101088.25;;;15.71;48.52
61528;BME280;47395;42.032;-8.634;2023-05-20T03:13:43;101071.25;;;15.74;48.55
61528;BME280;47395;42.032;-8.634;2023-05-20T03:15:44;101086.97;;;15.77;48.18
61528;BME280;47395;42.032;-8.634;2023-05-20T03:17:45;101081.38;;;15.82;48.54
61528;BME280;47395;42.032;-8.634;2023-05-20T03:19:47;101071.19;;;15.88;48.83
61528;BME280;47395;42.032;-8.634;2023-05-20T03:21:48;101070.66;;;15.83;48.02
61528;BME280;47395;42.032;-8.634;2023-05-20T03:23:50;101077.63;;;15.71;48.99
61528;BME280;47395;42.032;-8.634;2023-05-20T03:25:52;101068.16;;;15.67;48.33
61528;BME280;47395;42.032;-8.634;2023-05-20T03:27:53;101079.41;;;15.71;47.32
61528;BME280;47395;42.032;-8.634;2023-05-20T03:29:55;101082.94;;;15.71;47.88
61528;BME280;47395;42.032;-8.634;2023-05-20T03:31:56;101080.06;;;15.47;47.89
61528;BME280;47395;42.032;-8.634;2023-05-20T03:33:57;101078.19;;;15.34;48.14
61528;BME280;47395;42.032;-8.634;2023-05-20T03:35:58;101067.06;;;15.42;50.00
61528;BME280;47395;42.032;-8.634;2023-05-20T03:37:59;101060.06;;;15.41;49.35
61528;BME280;47395;42.032;-8.634;2023-05-20T03:40:02;101060.09;;;15.54;49.00
61528;BME280;47395;42.032;-8.634;2023-05-20T03:42:08;101055.84;;;15.51;48.64
61528;BME280;47395;42.032;-8.634;2023-05-20T03:44:09;101064.38;;;15.57;48.42
61528;BME280;47395;42.032;-8.634;2023-05-20T03:46:10;101076.94;;;15.68;48.37
61528;BME280;47395;42.032;-8.634;2023-05-20T03:48:11;101064.19;;;15.60;48.65
61528;BME280;47395;42.032;-8.634;2023-05-20T03:50:13;101057.03;;;15.33;48.41
61528;BME280;47395;42.032;-8.634;2023-05-20T03:52:15;101069.00;;;15.11;49.07
61528;BME280;47395;42.032;-8.634;2023-05-20T03:54:16;101051.84;;;15.17;49.97
61528;BME280;47395;42.032;-8.634;2023-05-20T03:56:19;101031.81;;;15.25;49.86
61528;BME280;47395;42.032;-8.634;2023-05-20T03:58:20;101043.78;;;15.33;49.18
61528;BME280;47395;42.032;-8.634;2023-05-20T04:00:21;101046.91;;;15.25;48.47
61528;BME280;47395;42.032;-8.634;2023-05-20T04:04:33;101050.13;;;15.30;47.88
61528;BME280;47395;42.032;-8.634;2023-05-20T04:06:34;101030.81;;;15.13;48.73
61528;BME280;47395;42.032;-8.634;2023-05-20T04:08:35;101031.38;;;15.19;48.96
61528;BME280;47395;42.032;-8.634;2023-05-20T04:10:36;101038.88;;;14.97;48.83
61528;BME280;47395;42.032;-8.634;2023-05-20T04:12:37;101040.41;;;15.01;49.17
61528;BME280;47395;42.032;-8.634;2023-05-20T04:14:38;101024.41;;;15.03;49.28
61528;BME280;47395;42.032;-8.634;2023-05-20T04:16:43;101036.97;;;15.14;48.83
61528;BME280;47395;42.032;-8.634;2023-05-20T04:18:45;101024.81;;;15.24;48.45
61528;BME280;47395;42.032;-8.634;2023-05-20T04:20:48;101050.81;;;15.19;47.70
61528;BME280;47395;42.032;-8.634;2023-05-20T04:22:50;101030.41;;;15.34;48.38
61528;BME280;47395;42.032;-8.634;2023-05-20T04:24:52;101046.41;;;15.33;47.78
61528;BME280;47395;42.032;-8.634;2023-05-20T04:26:52;101034.47;;;15.25;48.41
61528;BME280;47395;42.032;-8.634;2023-05-20T04:28:54;101042.94;;;15.18;48.10
61528;BME280;47395;42.032;-8.634;2023-05-20T04:30:59;101043.72;;;15.05;47.40
61528;BME280;47395;42.032;-8.634;2023-05-20T04:33:03;101044.25;;;15.10;49.25
61528;BME280;47395;42.032;-8.634;2023-05-20T04:35:04;101055.47;;;15.16;49.20
61528;BME280;47395;42.032;-8.634;2023-05-20T04:37:12;101036.66;;;15.19;48.33
61528;BME280;47395;42.032;-8.634;2023-05-20T04:39:14;101052.69;;;15.17;47.88
61528;BME280;47395;42.032;-8.634;2023-05-20T04:41:15;101045.78;;;15.14;48.96
61528;BME280;47395;42.032;-8.634;2023-05-20T04:43:15;101042.53;;;15.38;48.40
61528;BME280;47395;42.032;-8.634;2023-05-20T04:45:16;101038.66;;;15.30;48.17
61528;BME280;47395;42.032;-8.634;2023-05-20T04:47:18;101044.75;;;15.03;48.49
61528;BME280;47395;42.032;-8.634;2023-05-20T04:49:19;101053.94;;;14.97;48.70
61528;BME280;47395;42.032;-8.634;2023-05-20T04:51:21;101048.38;;;14.87;48.95
61528;BME280;47395;42.032;-8.634;2023-05-20T04:53:21;101040.59;;;14.84;48.72
61528;BME280;47395;42.032;-8.634;2023-05-20T04:55:22;101049.59;;;14.96;49.80
61528;BME280;47395;42.032;-8.634;2023-05-20T04:57:25;101048.94;;;14.92;49.29
61528;BME280;47395;42.032;-8.634;2023-05-20T04:59:26;101049.22;;;15.02;48.38
61528;BME280;47395;42.032;-8.634;2023-05-20T05:01:27;101053.47;;;15.19;48.52
61528;BME280;47395;42.032;-8.634;2023-05-20T05:03:28;101044.00;;;15.00;47.87
61528;BME280;47395;42.032;-8.634;2023-05-20T05:05:30;101041.94;;;14.91;48.42
61528;BME280;47395;42.032;-8.634;2023-05-20T05:07:31;101047.22;;;15.06;48.51
61528;BME280;47395;42.032;-8.634;2023-05-20T05:09:32;101050.72;;;15.21;48.70
61528;BME280;47395;42.032;-8.634;2023-05-20T05:11:33;101052.13;;;15.26;48.13
61528;BME280;47395;42.032;-8.634;2023-05-20T05:13:34;101052.38;;;15.36;48.58
61528;BME280;47395;42.032;-8.634;2023-05-20T05:15:35;101049.81;;;15.35;47.63
61528;BME280;47395;42.032;-8.634;2023-05-20T05:17:37;101048.88;;;15.36;48.08
61528;BME280;47395;42.032;-8.634;2023-05-20T05:19:38;101046.22;;;15.36;46.92
61528;BME280;47395;42.032;-8.634;2023-05-20T05:21:39;101037.78;;;15.44;47.51
61528;BME280;47395;42.032;-8.634;2023-05-20T05:23:40;101026.69;;;15.37;47.37
61528;BME280;47395;42.032;-8.634;2023-05-20T05:25:42;101016.34;;;15.47;47.33
61528;BME280;47395;42.032;-8.634;2023-05-20T05:27:43;101010.56;;;15.40;47.19
61528;BME280;47395;42.032;-8.634;2023-05-20T05:29:44;101009.53;;;15.43;46.90
61528;BME280;47395;42.032;-8.634;2023-05-20T05:31:45;101007.25;;;15.36;46.78
61528;BME280;47395;42.032;-8.634;2023-05-20T05:33:45;101014.88;;;15.13;47.35
61528;BME280;47395;42.032;-8.634;2023-05-20T05:35:46;101031.41;;;15.04;47.19
61528;BME280;47395;42.032;-8.634;2023-05-20T05:37:47;101025.13;;;15.05;48.80
61528;BME280;47395;42.032;-8.634;2023-05-20T05:39:49;101023.72;;;14.99;49.08
61528;BME280;47395;42.032;-8.634;2023-05-20T05:41:49;101028.19;;;15.41;48.57
61528;BME280;47395;42.032;-8.634;2023-05-20T05:43:51;101027.69;;;15.49;48.22
61528;BME280;47395;42.032;-8.634;2023-05-20T05:45:51;101022.03;;;15.68;47.68
61528;BME280;47395;42.032;-8.634;2023-05-20T05:47:53;101035.16;;;15.84;46.99
61528;BME280;47395;42.032;-8.634;2023-05-20T05:49:54;101045.25;;;16.07;47.17
61528;BME280;47395;42.032;-8.634;2023-05-20T05:51:55;101043.66;;;16.04;46.82
61528;BME280;47395;42.032;-8.634;2023-05-20T05:53:55;101038.47;;;16.28;46.57
61528;BME280;47395;42.032;-8.634;2023-05-20T05:55:56;101044.97;;;16.24;46.78
61528;BME280;47395;42.032;-8.634;2023-05-20T05:57:57;101040.16;;;16.42;46.36
61528;BME280;47395;42.032;-8.634;2023-05-20T05:59:58;101045.88;;;16.23;46.73
61528;BME280;47395;42.032;-8.634;2023-05-20T06:02:00;101034.81;;;16.03;46.00
61528;BME280;47395;42.032;-8.634;2023-05-20T06:04:01;101037.56;;;15.74;46.91
61528;BME280;47395;42.032;-8.634;2023-05-20T06:06:02;101013.38;;;15.51;48.34
61528;BME280;47395;42.032;-8.634;2023-05-20T06:08:03;101008.84;;;15.66;48.04
61528;BME280;47395;42.032;-8.634;2023-05-20T06:10:07;101021.63;;;16.15;48.19
61528;BME280;47395;42.032;-8.634;2023-05-20T06:12:08;101016.00;;;16.33;46.19
61528;BME280;47395;42.032;-8.634;2023-05-20T06:14:10;101022.19;;;16.59;45.31
61528;BME280;47395;42.032;-8.634;2023-05-20T06:16:10;101019.44;;;16.61;45.14
61528;BME280;47395;42.032;-8.634;2023-05-20T06:18:12;101014.09;;;16.87;45.26
61528;BME280;47395;42.032;-8.634;2023-05-20T06:20:13;101014.63;;;16.79;44.71
61528;BME280;47395;42.032;-8.634;2023-05-20T06:22:14;101023.59;;;16.39;45.77
61528;BME280;47395;42.032;-8.634;2023-05-20T06:24:14;101030.50;;;16.28;46.20
61528;BME280;47395;42.032;-8.634;2023-05-20T06:26:15;101029.22;;;16.21;46.61
61528;BME280;47395;42.032;-8.634;2023-05-20T06:28:17;101025.06;;;16.56;46.29
61528;BME280;47395;42.032;-8.634;2023-05-20T06:30:18;101040.69;;;16.87;45.46
61528;BME280;47395;42.032;-8.634;2023-05-20T06:32:19;101034.28;;;17.15;45.12
61528;BME280;47395;42.032;-8.634;2023-05-20T06:34:20;101034.66;;;17.59;44.21
61528;BME280;47395;42.032;-8.634;2023-05-20T06:36:21;101048.53;;;18.00;43.44
61528;BME280;47395;42.032;-8.634;2023-05-20T06:38:22;101049.88;;;18.31;42.92
61528;BME280;47395;42.032;-8.634;2023-05-20T06:40:24;101042.50;;;18.91;41.41
61528;BME280;47395;42.032;-8.634;2023-05-20T06:42:26;101046.88;;;18.92;40.43
61528;BME280;47395;42.032;-8.634;2023-05-20T06:44:37;101040.13;;;19.88;39.65
61528;BME280;47395;42.032;-8.634;2023-05-20T06:47:07;101025.56;;;20.14;38.98
61528;BME280;47395;42.032;-8.634;2023-05-20T06:49:09;101034.00;;;19.98;38.19
61528;BME280;47395;42.032;-8.634;2023-05-20T06:51:10;101037.13;;;20.98;36.43
61528;BME280;47395;42.032;-8.634;2023-05-20T06:53:12;101036.25;;;21.68;34.81
61528;BME280;47395;42.032;-8.634;2023-05-20T06:55:13;101039.69;;;22.00;34.03
61528;BME280;47395;42.032;-8.634;2023-05-20T06:57:14;101036.31;;;22.46;33.34
61528;BME280;47395;42.032;-8.634;2023-05-20T06:59:15;101040.97;;;22.53;33.12
61528;BME280;47395;42.032;-8.634;2023-05-20T07:01:17;101032.47;;;23.52;30.72
61528;BME280;47395;42.032;-8.634;2023-05-20T07:03:17;101026.50;;;24.91;29.25
61528;BME280;47395;42.032;-8.634;2023-05-20T07:05:18;101032.88;;;23.84;29.50
61528;BME280;47395;42.032;-8.634;2023-05-20T07:07:19;101023.66;;;24.23;30.85
61528;BME280;47395;42.032;-8.634;2023-05-20T07:09:20;101035.66;;;24.63;29.63
61528;BME280;47395;42.032;-8.634;2023-05-20T07:11:21;101036.88;;;24.77;28.86
61528;BME280;47395;42.032;-8.634;2023-05-20T07:13:22;101038.78;;;25.28;28.42
61528;BME280;47395;42.032;-8.634;2023-05-20T07:15:24;101035.75;;;25.40;28.42
61528;BME280;47395;42.032;-8.634;2023-05-20T07:17:27;101041.06;;;25.91;28.27
61528;BME280;47395;42.032;-8.634;2023-05-20T07:19:28;101039.31;;;25.49;28.53
61528;BME280;47395;42.032;-8.634;2023-05-20T07:21:29;101045.38;;;26.59;27.25
61528;BME280;47395;42.032;-8.634;2023-05-20T07:24:02;101044.88;;;27.35;26.86
61528;BME280;47395;42.032;-8.634;2023-05-20T07:26:04;101058.59;;;27.57;26.12
61528;BME280;47395;42.032;-8.634;2023-05-20T07:28:05;101054.88;;;27.82;25.94
61528;BME280;47395;42.032;-8.634;2023-05-20T07:30:07;101058.59;;;27.34;26.25
61528;BME280;47395;42.032;-8.634;2023-05-20T07:32:09;101051.06;;;27.76;25.26
61528;BME280;47395;42.032;-8.634;2023-05-20T07:34:11;101052.16;;;28.44;24.74
61528;BME280;47395;42.032;-8.634;2023-05-20T07:36:14;101063.66;;;28.91;24.50
61528;BME280;47395;42.032;-8.634;2023-05-20T07:38:17;101057.22;;;28.23;24.34
61528;BME280;47395;42.032;-8.634;2023-05-20T07:40:20;101055.75;;;28.81;25.23
61528;BME280;47395;42.032;-8.634;2023-05-20T07:42:20;101053.75;;;29.35;23.49
61528;BME280;47395;42.032;-8.634;2023-05-20T07:44:25;101058.41;;;29.85;23.73
61528;BME280;47395;42.032;-8.634;2023-05-20T07:46:26;101052.50;;;29.81;23.64
61528;BME280;47395;42.032;-8.634;2023-05-20T07:48:27;101059.34;;;30.21;23.26
61528;BME280;47395;42.032;-8.634;2023-05-20T07:50:28;101055.03;;;28.72;24.06
61528;BME280;47395;42.032;-8.634;2023-05-20T07:52:29;101053.34;;;26.92;27.03
61528;BME280;47395;42.032;-8.634;2023-05-20T08:01:39;101045.50;;;28.61;25.06
61528;BME280;47395;42.032;-8.634;2023-05-20T08:03:42;101057.50;;;29.19;24.01
61528;BME280;47395;42.032;-8.634;2023-05-20T08:05:47;101043.06;;;28.51;25.58
61528;BME280;47395;42.032;-8.634;2023-05-20T08:07:48;101046.28;;;25.60;28.76
61528;BME280;47395;42.032;-8.634;2023-05-20T08:09:56;101051.00;;;24.00;31.18
61528;BME280;47395;42.032;-8.634;2023-05-20T08:11:57;101043.97;;;22.88;33.14
61528;BME280;47395;42.032;-8.634;2023-05-20T08:13:59;101054.72;;;22.40;34.48
61528;BME280;47395;42.032;-8.634;2023-05-20T08:16:04;101045.41;;;22.25;34.69
61528;BME280;47395;42.032;-8.634;2023-05-20T08:18:09;101050.88;;;22.43;34.45
61528;BME280;47395;42.032;-8.634;2023-05-20T08:20:12;101041.09;;;21.84;35.25
61528;BME280;47395;42.032;-8.634;2023-05-20T08:22:13;101050.72;;;21.26;36.63
61528;BME280;47395;42.032;-8.634;2023-05-20T08:24:15;101054.63;;;21.02;38.12
61528;BME280;47395;42.032;-8.634;2023-05-20T08:26:16;101054.25;;;21.17;37.36
61528;BME280;47395;42.032;-8.634;2023-05-20T08:28:17;101041.41;;;21.20;37.84
61528;BME280;47395;42.032;-8.634;2023-05-20T08:30:18;101041.34;;;21.71;36.07
61528;BME280;47395;42.032;-8.634;2023-05-20T08:32:21;101040.84;;;23.21;34.35
61528;BME280;47395;42.032;-8.634;2023-05-20T08:34:23;101042.06;;;25.90;29.82
61528;BME280;47395;42.032;-8.634;2023-05-20T08:36:25;101046.88;;;27.88;27.39
61528;BME280;47395;42.032;-8.634;2023-05-20T08:38:25;101047.69;;;29.55;25.03
61528;BME280;47395;42.032;-8.634;2023-05-20T08:40:26;101045.56;;;30.58;23.50
61528;BME280;47395;42.032;-8.634;2023-05-20T08:42:27;101054.03;;;29.62;24.41
61528;BME280;47395;42.032;-8.634;2023-05-20T08:44:30;101048.19;;;30.80;22.28
61528;BME280;47395;42.032;-8.634;2023-05-20T08:46:33;101050.78;;;30.24;24.02
61528;BME280;47395;42.032;-8.634;2023-05-20T08:48:34;101052.22;;;30.91;23.88
61528;BME280;47395;42.032;-8.634;2023-05-20T08:50:35;101051.34;;;31.46;23.12
61528;BME280;47395;42.032;-8.634;2023-05-20T08:52:44;101043.03;;;32.22;22.16
61528;BME280;47395;42.032;-8.634;2023-05-20T08:54:47;101054.88;;;32.68;20.73
61528;BME280;47395;42.032;-8.634;2023-05-20T08:56:49;101059.09;;;33.16;20.25
61528;BME280;47395;42.032;-8.634;2023-05-20T08:58:51;101053.59;;;32.77;20.01
61528;BME280;47395;42.032;-8.634;2023-05-20T09:00:52;101053.41;;;33.57;18.91
61528;BME280;47395;42.032;-8.634;2023-05-20T09:02:54;101055.47;;;33.62;19.95
61528;BME280;47395;42.032;-8.634;2023-05-20T09:04:55;101055.53;;;32.43;20.45
61528;BME280;47395;42.032;-8.634;2023-05-20T09:06:57;101057.28;;;32.03;22.02
61528;BME280;47395;42.032;-8.634;2023-05-20T09:09:01;101056.63;;;33.08;20.70
61528;BME280;47395;42.032;-8.634;2023-05-20T09:11:02;101050.00;;;33.23;19.86
61528;BME280;47395;42.032;-8.634;2023-05-20T09:13:05;101056.09;;;33.89;20.21
61528;BME280;47395;42.032;-8.634;2023-05-20T09:15:08;101053.81;;;34.11;19.32
61528;BME280;47395;42.032;-8.634;2023-05-20T09:17:11;101057.09;;;34.20;18.73
61528;BME280;47395;42.032;-8.634;2023-05-20T09:19:12;101043.47;;;34.14;18.98
61528;BME280;47395;42.032;-8.634;2023-05-20T09:21:15;101050.34;;;33.72;19.75
61528;BME280;47395;42.032;-8.634;2023-05-20T09:23:18;101044.09;;;33.90;19.22
61528;BME280;47395;42.032;-8.634;2023-05-20T09:25:20;101047.91;;;34.15;19.61
61528;BME280;47395;42.032;-8.634;2023-05-20T09:27:24;101053.84;;;34.05;19.11
61528;BME280;47395;42.032;-8.634;2023-05-20T09:29:25;101048.59;;;34.29;19.81
61528;BME280;47395;42.032;-8.634;2023-05-20T09:31:34;101048.59;;;34.47;18.69
61528;BME280;47395;42.032;-8.634;2023-05-20T09:33:38;101049.66;;;34.46;18.29
61528;BME280;47395;42.032;-8.634;2023-05-20T09:35:39;101044.47;;;34.38;19.57
61528;BME280;47395;42.032;-8.634;2023-05-20T09:37:41;101054.88;;;32.68;20.30
61528;BME280;47395;42.032;-8.634;2023-05-20T09:40:04;101040.53;;;34.34;19.05
61528;BME280;47395;42.032;-8.634;2023-05-20T09:42:14;101037.34;;;34.37;19.09
61528;BME280;47395;42.032;-8.634;2023-05-20T09:44:18;101036.31;;;35.06;18.21
61528;BME280;47395;42.032;-8.634;2023-05-20T09:46:21;101037.78;;;34.90;18.77
61528;BME280;47395;42.032;-8.634;2023-05-20T09:48:23;101040.66;;;34.95;19.13
61528;BME280;47395;42.032;-8.634;2023-05-20T09:50:26;101038.28;;;33.54;19.46
61528;BME280;47395;42.032;-8.634;2023-05-20T09:52:30;101033.16;;;34.16;18.90
61528;BME280;47395;42.032;-8.634;2023-05-20T09:54:34;101032.97;;;35.04;17.95
61528;BME280;47395;42.032;-8.634;2023-05-20T09:56:36;101025.97;;;35.63;18.07
61528;BME280;47395;42.032;-8.634;2023-05-20T09:58:37;101026.75;;;35.70;17.64
61528;BME280;47395;42.032;-8.634;2023-05-20T10:00:39;101027.44;;;36.49;17.27
61528;BME280;47395;42.032;-8.634;2023-05-20T10:02:43;101029.28;;;37.31;17.47
61528;BME280;47395;42.032;-8.634;2023-05-20T10:04:48;101027.69;;;36.12;17.35
61528;BME280;47395;42.032;-8.634;2023-05-20T10:07:10;101022.78;;;36.38;17.65
61528;BME280;47395;42.032;-8.634;2023-05-20T10:12:10;101025.63;;;37.25;16.37
61528;BME280;47395;42.032;-8.634;2023-05-20T10:17:24;101018.88;;;37.84;16.88
61528;BME280;47395;42.032;-8.634;2023-05-20T10:19:32;101015.13;;;37.56;16.97
61528;BME280;47395;42.032;-8.634;2023-05-20T10:21:33;101016.66;;;37.30;17.01
61528;BME280;47395;42.032;-8.634;2023-05-20T10:23:34;101017.97;;;37.44;17.21
61528;BME280;47395;42.032;-8.634;2023-05-20T10:25:36;101011.41;;;37.63;15.47
61528;BME280;47395;42.032;-8.634;2023-05-20T10:27:47;101023.47;;;36.98;17.63
61528;BME280;47395;42.032;-8.634;2023-05-20T10:29:53;101014.31;;;37.21;17.31
61528;BME280;47395;42.032;-8.634;2023-05-20T10:31:54;101007.41;;;38.27;16.29
61528;BME280;47395;42.032;-8.634;2023-05-20T10:33:57;101013.94;;;38.93;15.61
61528;BME280;47395;42.032;-8.634;2023-05-20T10:35:59;101007.09;;;38.68;15.57
61528;BME280;47395;42.032;-8.634;2023-05-20T10:38:10;101011.97;;;39.49;14.61
61528;BME280;47395;42.032;-8.634;2023-05-20T10:40:18;101000.75;;;38.95;15.39
61528;BME280;47395;42.032;-8.634;2023-05-20T10:42:34;100997.66;;;37.63;17.52
61528;BME280;47395;42.032;-8.634;2023-05-20T10:44:46;100986.97;;;38.95;17.47
61528;BME280;47395;42.032;-8.634;2023-05-20T10:47:02;100988.34;;;38.93;15.28
61528;BME280;47395;42.032;-8.634;2023-05-20T10:49:16;100980.78;;;37.93;16.45
61528;BME280;47395;42.032;-8.634;2023-05-20T10:51:20;100989.50;;;37.16;16.74
61528;BME280;47395;42.032;-8.634;2023-05-20T10:53:22;100977.28;;;36.25;17.95
61528;BME280;47395;42.032;-8.634;2023-05-20T10:55:23;100980.88;;;35.65;18.63
61528;BME280;47395;42.032;-8.634;2023-05-20T10:57:27;100973.34;;;35.61;18.02
61528;BME280;47395;42.032;-8.634;2023-05-20T10:59:27;100970.09;;;36.36;17.75